Time;durP1;ratioP1;P1;durP2;ratioP2;P2;SDS_P1;SDS_P2;PMS_P1;PMS_P2;Temp;Humidity;BMP_temperature;BMP_pressure;BME280_temperature;BME280_humidity;BME280_pressure;Samples;Min_cycle;Max_cycle;Signal;HPM_P1;HPM_P2
2023/10/12 00:02:04;;;;;;;2.58;1.85;;;;;;;;;;10294428;28;20073;-65
2023/10/12 00:07:10;;;;;;;2.90;2.53;;;;;;;;;;10292763;28;20083;-65
2023/10/12 00:12:11;;;;;;;3.13;2.50;;;;;;;;;;10282298;28;20106;-65
2023/10/12 00:17:11;;;;;;;2.65;2.25;;;;;;;;;;10298005;28;20530;-65
2023/10/12 00:22:11;;;;;;;5.03;2.17;;;;;;;;;;10292484;28;20103;-65
2023/10/12 00:27:11;;;;;;;3.10;2.13;;;;;;;;;;10294242;28;20083;-65
2023/10/12 00:32:13;;;;;;;4.50;2.53;;;;;;;;;;10289646;28;20072;-65
2023/10/12 00:37:11;;;;;;;3.70;2.65;;;;;;;;;;10290144;28;20076;-65
2023/10/12 00:42:10;;;;;;;3.95;1.92;;;;;;;;;;10278129;28;20529;-65
2023/10/12 00:47:12;;;;;;;3.10;2.28;;;;;;;;;;10286870;28;20081;-64
2023/10/12 00:52:21;;;;;;;3.05;2.60;;;;;;;;;;10291324;28;20147;-64
2023/10/12 00:57:20;;;;;;;3.25;2.28;;;;;;;;;;10306262;28;20076;-65
2023/10/12 01:02:23;;;;;;;2.90;2.17;;;;;;;;;;10291435;28;20588;-65
2023/10/12 01:07:26;;;;;;;2.78;2.22;;;;;;;;;;10289795;28;20064;-64
2023/10/12 01:12:30;;;;;;;4.10;2.80;;;;;;;;;;10290504;28;20162;-64
2023/10/12 01:17:29;;;;;;;3.65;2.50;;;;;;;;;;10287544;28;20075;-64
2023/10/12 01:22:31;;;;;;;5.63;2.45;;;;;;;;;;10282661;28;20542;-64
2023/10/12 01:27:30;;;;;;;6.70;2.08;;;;;;;;;;10290961;28;20071;-65
2023/10/12 01:32:29;;;;;;;2.92;2.00;;;;;;;;;;10290200;28;20072;-64
2023/10/12 01:37:28;;;;;;;3.60;2.50;;;;;;;;;;10289205;28;20045;-65
2023/10/12 01:42:42;;;;;;;5.00;2.95;;;;;;;;;;10296368;28;20525;-64
2023/10/12 01:47:41;;;;;;;6.47;2.57;;;;;;;;;;10297722;28;20069;-64
2023/10/12 01:52:46;;;;;;;2.83;2.30;;;;;;;;;;10282333;28;20346;-64
2023/10/12 01:57:52;;;;;;;2.92;2.05;;;;;;;;;;10292411;28;20080;-64
2023/10/12 02:03:00;;;;;;;4.28;2.55;;;;;;;;;;10274215;28;20162;-65
2023/10/12 02:08:05;;;;;;;2.50;2.10;;;;;;;;;;10288382;28;20075;-64
2023/10/12 02:13:05;;;;;;;5.45;2.90;;;;;;;;;;10289463;28;20171;-65
2023/10/12 02:18:10;;;;;;;5.45;2.63;;;;;;;;;;10284690;28;20697;-65
2023/10/12 02:23:11;;;;;;;;;;;;;;;;;;10292292;28;20073;-65
2023/10/12 02:28:11;;;;;;;3.08;2.47;;;;;;;;;;10280911;28;19956;-65
2023/10/12 02:33:13;;;;;;;3.10;2.60;;;;;;;;;;10294654;28;20072;-64
2023/10/12 02:38:15;;;;;;;5.57;2.28;;;;;;;;;;10293518;28;20081;-64
2023/10/12 02:43:15;;;;;;;3.05;2.55;;;;;;;;;;10295573;28;20060;-64
2023/10/12 02:48:23;;;;;;;2.78;2.10;;;;;;;;;;10288779;28;20071;-64
2023/10/12 02:53:28;;;;;;;4.93;3.10;;;;;;;;;;10299482;28;20076;-64
2023/10/12 02:58:29;;;;;;;5.10;2.30;;;;;;;;;;10291395;28;20087;-64
2023/10/12 03:03:33;;;;;;;6.18;2.10;;;;;;;;;;10295272;28;20080;-63
2023/10/12 03:08:33;;;;;;;2.67;2.28;;;;;;;;;;10292297;28;20068;-64
2023/10/12 03:13:35;;;;;;;5.18;2.83;;;;;;;;;;10303273;28;20088;-64
2023/10/12 03:18:35;;;;;;;3.63;2.60;;;;;;;;;;10294395;28;20052;-64
2023/10/12 03:23:34;;;;;;;4.38;2.28;;;;;;;;;;10293432;28;20076;-64
2023/10/12 03:28:44;;;;;;;3.50;2.75;;;;;;;;;;10294294;28;20060;-64
2023/10/12 03:33:46;;;;;;;2.92;2.60;;;;;;;;;;10290667;28;20063;-65
2023/10/12 03:38:44;;;;;;;2.88;2.42;;;;;;;;;;10280712;28;20056;-64
2023/10/12 03:43:48;;;;;;;6.20;2.33;;;;;;;;;;10284839;28;20080;-64
2023/10/12 03:49:02;;;;;;;4.30;2.08;;;;;;;;;;10284868;28;20064;-65
2023/10/12 03:54:11;;;;;;;5.20;2.67;;;;;;;;;;10293468;28;20537;-65
2023/10/12 03:59:12;;;;;;;6.32;2.65;;;;;;;;;;10291507;28;20075;-65
2023/10/12 04:04:19;;;;;;;5.63;2.28;;;;;;;;;;10292988;28;20068;-64
2023/10/12 04:09:31;;;;;;;3.72;2.55;;;;;;;;;;10286704;28;20056;-64
2023/10/12 04:14:49;;;;;;;3.92;2.45;;;;;;;;;;10287657;28;20478;-64
2023/10/12 04:20:12;;;;;;;6.47;2.55;;;;;;;;;;10289353;28;20072;-63
2023/10/12 04:25:13;;;;;;;3.22;2.80;;;;;;;;;;10268530;28;20092;-64
2023/10/12 04:30:28;;;;;;;8.60;2.45;;;;;;;;;;10285327;28;20077;-64
2023/10/12 04:41:12;;;;;;;4.30;2.63;;;;;;;;;;10290287;28;20510;-64
2023/10/12 04:46:26;;;;;;;6.85;2.88;;;;;;;;;;10288227;28;20072;-66
2023/10/12 04:51:30;;;;;;;9.00;3.47;;;;;;;;;;10286430;28;20091;-64
2023/10/12 04:56:30;;;;;;;12.33;2.80;;;;;;;;;;10290847;28;20514;-65
2023/10/12 05:01:40;;;;;;;2.83;2.53;;;;;;;;;;10290242;28;20339;-64
2023/10/12 05:06:46;;;;;;;3.13;2.80;;;;;;;;;;10275483;28;20477;-64
2023/10/12 05:11:46;;;;;;;6.32;2.33;;;;;;;;;;10281820;28;20084;-65
2023/10/12 05:16:45;;;;;;;4.55;2.22;;;;;;;;;;10279909;28;20119;-65
2023/10/12 05:21:45;;;;;;;6.75;3.70;;;;;;;;;;10268778;28;20075;-65
2023/10/12 05:26:52;;;;;;;3.17;2.72;;;;;;;;;;10280511;28;20061;-65
2023/10/12 05:32:04;;;;;;;4.82;3.17;;;;;;;;;;10285554;28;20080;-64
2023/10/12 05:37:08;;;;;;;4.35;2.97;;;;;;;;;;10279564;28;20487;-64
2023/10/12 05:42:07;;;;;;;3.40;2.80;;;;;;;;;;10278805;28;20072;-64
2023/10/12 05:47:06;;;;;;;4.10;2.70;;;;;;;;;;10288814;28;20064;-64
2023/10/12 05:52:06;;;;;;;6.40;2.60;;;;;;;;;;10289388;28;20179;-64
2023/10/12 05:57:07;;;;;;;8.68;3.10;;;;;;;;;;10297647;28;20068;-63
2023/10/12 06:02:05;;;;;;;5.20;2.85;;;;;;;;;;10299363;28;20487;-64
2023/10/12 06:07:05;;;;;;;4.95;3.13;;;;;;;;;;10296698;28;20095;-64
2023/10/12 06:12:07;;;;;;;10.35;2.58;;;;;;;;;;10295774;28;20080;-64
2023/10/12 06:17:06;;;;;;;9.82;3.67;;;;;;;;;;10299420;28;20095;-65
2023/10/12 06:22:19;;;;;;;10.43;2.97;;;;;;;;;;10297064;28;20076;-64
2023/10/12 06:27:25;;;;;;;4.63;2.90;;;;;;;;;;10296289;28;20072;-65
2023/10/12 06:32:31;;;;;;;6.18;3.45;;;;;;;;;;10296385;28;20068;-64
2023/10/12 06:37:49;;;;;;;6.85;3.25;;;;;;;;;;10292603;28;20072;-64
2023/10/12 06:43:52;;;;;;;9.07;5.35;;;;;;;;;;10295865;28;20072;-65
2023/10/12 06:48:23;;;;;;;11.18;4.97;;;;;;;;;;10297943;28;20076;-65
2023/10/12 06:53:24;;;;;;;7.10;4.57;;;;;;;;;;10295171;28;20506;-65
2023/10/12 06:58:36;;;;;;;8.85;3.88;;;;;;;;;;10293472;28;20081;-65
2023/10/12 07:03:37;;;;;;;5.73;2.77;;;;;;;;;;10293366;28;20117;-65
2023/10/12 07:08:35;;;;;;;12.30;3.47;;;;;;;;;;10296211;28;20470;-66
2023/10/12 07:13:42;;;;;;;5.43;3.63;;;;;;;;;;10294039;28;20083;-65
2023/10/12 07:18:43;;;;;;;12.82;7.22;;;;;;;;;;10293550;28;20081;-65
2023/10/12 07:23:42;;;;;;;9.73;4.22;;;;;;;;;;10294976;28;20150;-65
2023/10/12 07:28:42;;;;;;;8.38;2.45;;;;;;;;;;10296365;28;20080;-64
2023/10/12 07:33:51;;;;;;;7.30;3.30;;;;;;;;;;10292886;28;20076;-65
2023/10/12 07:39:14;;;;;;;14.57;2.95;;;;;;;;;;10294667;28;20068;-64
2023/10/12 07:44:09;;;;;;;9.30;3.88;;;;;;;;;;10293264;28;20092;-64
2023/10/12 07:49:24;;;;;;;15.45;3.70;;;;;;;;;;10293901;28;20080;-65
2023/10/12 07:54:46;;;;;;;11.10;3.47;;;;;;;;;;10293834;28;20076;-64
2023/10/12 07:59:58;;;;;;;10.48;4.40;;;;;;;;;;10294191;28;20078;-65
2023/10/12 08:04:59;;;;;;;5.90;3.92;;;;;;;;;;10291788;28;20531;-65
2023/10/12 08:10:08;;;;;;;6.80;3.10;;;;;;;;;;10294271;28;20471;-65
2023/10/12 08:15:12;;;;;;;14.43;3.97;;;;;;;;;;10291339;28;20083;-65
2023/10/12 08:25:37;;;;;;;8.13;4.45;;;;;;;;;;10293252;28;20076;-64
2023/10/12 08:31:00;;;;;;;9.93;3.70;;;;;;;;;;10292210;28;20072;-65
2023/10/12 08:41:28;;;;;;;6.88;2.63;;;;;;;;;;10292676;28;20067;-64
2023/10/12 08:46:56;;;;;;;9.07;4.13;;;;;;;;;;10291376;28;20095;-64
2023/10/12 08:52:17;;;;;;;11.98;3.50;;;;;;;;;;10293082;28;20117;-64
2023/10/12 08:57:19;;;;;;;12.60;3.70;;;;;;;;;;10291797;28;20076;-64
2023/10/12 09:02:22;;;;;;;10.27;3.92;;;;;;;;;;10292103;28;20586;-64
2023/10/12 09:07:21;;;;;;;22.38;4.55;;;;;;;;;;10299397;28;20454;-65
2023/10/12 09:12:21;;;;;;;9.48;2.70;;;;;;;;;;10291108;28;20091;-65
2023/10/12 09:17:30;;;;;;;7.90;3.25;;;;;;;;;;10291052;28;20080;-65
2023/10/12 09:22:29;;;;;;;4.30;2.88;;;;;;;;;;10291053;28;20073;-65
2023/10/12 09:27:36;;;;;;;4.35;2.75;;;;;;;;;;10275024;28;20438;-65
2023/10/12 09:32:56;;;;;;;5.35;2.90;;;;;;;;;;10287435;28;20495;-65
2023/10/12 09:37:55;;;;;;;8.65;2.72;;;;;;;;;;10292525;28;20143;-64
2023/10/12 09:42:55;;;;;;;7.00;2.70;;;;;;;;;;10288579;28;20072;-65
2023/10/12 09:47:57;;;;;;;5.10;2.67;;;;;;;;;;10289604;28;20305;-64
2023/10/12 09:52:58;;;;;;;11.15;2.42;;;;;;;;;;10290271;28;20077;-65
2023/10/12 09:58:00;;;;;;;9.70;2.63;;;;;;;;;;10291299;28;20076;-65
2023/10/12 10:03:03;;;;;;;5.75;3.00;;;;;;;;;;10290634;28;20080;-65
2023/10/12 10:08:04;;;;;;;8.27;3.00;;;;;;;;;;10287887;28;20132;-64
2023/10/12 10:13:08;;;;;;;4.03;2.55;;;;;;;;;;10289923;28;20080;-64
2023/10/12 10:18:16;;;;;;;6.55;3.35;;;;;;;;;;10289228;28;20075;-65
2023/10/12 10:23:19;;;;;;;7.65;2.75;;;;;;;;;;10287163;28;20456;-65
2023/10/12 10:28:23;;;;;;;8.13;2.97;;;;;;;;;;10290495;28;20069;-64
2023/10/12 10:33:23;;;;;;;6.45;3.50;;;;;;;;;;10291469;28;20110;-64
2023/10/12 10:38:23;;;;;;;7.22;3.30;;;;;;;;;;10289457;28;20068;-64
2023/10/12 10:43:21;;;;;;;2.17;1.95;;;;;;;;;;10296387;28;20080;-64
2023/10/12 10:48:19;;;;;;;4.65;2.10;;;;;;;;;;10296295;28;20161;-64
2023/10/12 10:53:39;;;;;;;4.47;2.38;;;;;;;;;;10293819;28;20470;-64
2023/10/12 10:58:37;;;;;;;2.80;2.22;;;;;;;;;;10293724;28;20064;-64
2023/10/12 11:03:39;;;;;;;2.78;2.42;;;;;;;;;;10292298;28;20463;-64
2023/10/12 11:08:40;;;;;;;4.13;2.55;;;;;;;;;;10292680;28;20064;-65
2023/10/12 11:13:39;;;;;;;2.45;1.90;;;;;;;;;;10296188;28;20080;-64
2023/10/12 11:18:37;;;;;;;4.55;2.25;;;;;;;;;;10296996;28;20083;-64
2023/10/12 11:23:36;;;;;;;5.72;2.55;;;;;;;;;;10295382;28;20076;-64
2023/10/12 11:28:37;;;;;;;3.53;2.30;;;;;;;;;;10293470;28;20087;-64
2023/10/12 11:33:36;;;;;;;5.10;2.67;;;;;;;;;;10294865;28;20079;-64
2023/10/12 11:38:34;;;;;;;6.25;2.53;;;;;;;;;;10294751;28;20498;-64
2023/10/12 11:43:49;;;;;;;3.67;2.35;;;;;;;;;;10293174;28;20072;-64
2023/10/12 11:49:01;;;;;;;5.43;2.38;;;;;;;;;;10294448;28;20072;-64
2023/10/12 11:54:00;;;;;;;7.32;2.90;;;;;;;;;;10291352;28;20071;-66
2023/10/12 11:58:59;;;;;;;4.38;3.28;;;;;;;;;;10290991;28;20084;-65
2023/10/12 12:04:03;;;;;;;6.75;2.95;;;;;;;;;;10290662;28;20067;-64
2023/10/12 12:09:07;;;;;;;3.75;3.13;;;;;;;;;;10290019;28;20076;-64
2023/10/12 12:14:07;;;;;;;9.73;3.10;;;;;;;;;;10291931;28;20080;-64
2023/10/12 12:19:05;;;;;;;4.78;3.50;;;;;;;;;;10293600;28;20077;-64
2023/10/12 12:24:22;;;;;;;6.38;2.75;;;;;;;;;;10291906;28;20068;-64
2023/10/12 12:29:26;;;;;;;16.35;3.53;;;;;;;;;;10290410;28;20112;-64
2023/10/12 12:34:41;;;;;;;7.10;3.17;;;;;;;;;;10291676;28;20072;-64
2023/10/12 12:39:42;;;;;;;4.25;2.92;;;;;;;;;;10290538;28;20358;-65
2023/10/12 12:44:42;;;;;;;8.25;3.67;;;;;;;;;;10289843;28;20533;-65
2023/10/12 12:49:42;;;;;;;9.07;3.63;;;;;;;;;;10292354;28;20072;-65
2023/10/12 12:54:40;;;;;;;5.53;3.50;;;;;;;;;;10292159;28;20518;-65
2023/10/12 12:59:38;;;;;;;11.75;4.10;;;;;;;;;;10290830;28;20067;-65
2023/10/12 13:04:38;;;;;;;9.75;3.72;;;;;;;;;;10288653;28;20079;-64
2023/10/12 13:09:36;;;;;;;11.95;5.30;;;;;;;;;;10288703;28;20092;-64
2023/10/12 13:14:34;;;;;;;11.40;3.75;;;;;;;;;;10291620;28;20103;-65
2023/10/12 13:19:33;;;;;;;11.38;4.15;;;;;;;;;;10291526;28;20485;-65
2023/10/12 13:24:35;;;;;;;14.60;4.18;;;;;;;;;;10290620;28;20060;-64
2023/10/12 13:29:33;;;;;;;6.75;4.43;;;;;;;;;;10290598;28;20059;-65
2023/10/12 13:34:33;;;;;;;4.57;4.03;;;;;;;;;;10287149;28;20127;-65
2023/10/12 13:39:33;;;;;;;7.18;3.70;;;;;;;;;;10287714;28;20084;-65
2023/10/12 13:44:32;;;;;;;5.65;4.20;;;;;;;;;;10289413;28;20083;-65
2023/10/12 13:49:30;;;;;;;6.78;4.78;;;;;;;;;;10290836;28;20450;-65
2023/10/12 13:54:30;;;;;;;6.65;3.92;;;;;;;;;;10288266;28;20495;-65
2023/10/12 13:59:34;;;;;;;7.72;4.70;;;;;;;;;;10291152;28;20509;-64
2023/10/12 14:04:34;;;;;;;13.00;5.28;;;;;;;;;;10289529;28;20080;-65
2023/10/12 14:09:32;;;;;;;7.18;4.10;;;;;;;;;;10290698;28;20064;-65
2023/10/12 14:14:30;;;;;;;4.45;3.08;;;;;;;;;;10291113;28;20072;-64
2023/10/12 14:19:30;;;;;;;5.22;3.47;;;;;;;;;;10295407;28;20443;-64
2023/10/12 14:24:33;;;;;;;6.10;3.55;;;;;;;;;;10294667;28;20074;-64
2023/10/12 14:29:32;;;;;;;6.53;3.47;;;;;;;;;;10292805;28;20515;-64
2023/10/12 14:34:32;;;;;;;6.68;3.75;;;;;;;;;;10298996;28;20345;-64
2023/10/12 14:39:31;;;;;;;6.57;4.43;;;;;;;;;;10298594;28;20099;-65
2023/10/12 14:44:30;;;;;;;7.70;5.38;;;;;;;;;;10298105;28;20072;-64
2023/10/12 14:49:30;;;;;;;9.32;5.32;;;;;;;;;;10299295;28;20576;-65
2023/10/12 14:54:30;;;;;;;13.32;5.45;;;;;;;;;;10295777;28;20080;-64
2023/10/12 14:59:29;;;;;;;15.75;6.65;;;;;;;;;;10295578;28;20502;-64
2023/10/12 15:04:27;;;;;;;7.97;5.53;;;;;;;;;;10295462;28;20083;-65
2023/10/12 15:09:27;;;;;;;16.65;5.93;;;;;;;;;;10296738;28;20076;-65
2023/10/12 15:14:27;;;;;;;15.95;6.50;;;;;;;;;;10294894;28;20097;-63
2023/10/12 15:19:27;;;;;;;21.83;8.27;;;;;;;;;;10295241;28;20079;-64
2023/10/12 15:24:26;;;;;;;14.30;6.53;;;;;;;;;;10294888;28;20068;-64
2023/10/12 15:29:26;;;;;;;6.70;4.90;;;;;;;;;;10292678;28;20072;-64
2023/10/12 15:34:27;;;;;;;8.63;5.45;;;;;;;;;;10292432;28;20080;-64
2023/10/12 15:39:27;;;;;;;10.30;4.90;;;;;;;;;;10292832;28;20099;-64
2023/10/12 15:44:26;;;;;;;14.45;4.85;;;;;;;;;;10290707;28;20068;-64
2023/10/12 15:49:24;;;;;;;9.70;5.47;;;;;;;;;;10290088;28;20067;-63
2023/10/12 15:54:25;;;;;;;11.48;5.40;;;;;;;;;;10293192;28;20072;-64
2023/10/12 15:59:25;;;;;;;12.32;5.65;;;;;;;;;;10286708;28;20064;-63
2023/10/12 16:04:23;;;;;;;11.52;5.32;;;;;;;;;;10292118;28;20072;-64
2023/10/12 16:09:24;;;;;;;25.33;6.43;;;;;;;;;;10293279;28;20072;-64
2023/10/12 16:14:25;;;;;;;11.63;5.45;;;;;;;;;;10291185;28;20316;-64
2023/10/12 16:19:24;;;;;;;6.47;5.00;;;;;;;;;;10290107;28;20064;-64
2023/10/12 16:24:24;;;;;;;11.65;6.70;;;;;;;;;;10292904;28;20075;-64
2023/10/12 16:29:25;;;;;;;7.53;6.30;;;;;;;;;;10292588;28;20102;-65
2023/10/12 16:34:24;;;;;;;11.00;5.40;;;;;;;;;;10292391;28;20483;-65
2023/10/12 16:39:24;;;;;;;8.68;5.38;;;;;;;;;;10291383;28;20079;-64
2023/10/12 16:44:25;;;;;;;12.48;5.97;;;;;;;;;;10291029;28;20098;-64
2023/10/12 16:49:23;;;;;;;6.95;5.57;;;;;;;;;;10291354;28;20099;-65
2023/10/12 16:54:22;;;;;;;14.00;5.13;;;;;;;;;;10288238;28;20079;-64
2023/10/12 16:59:26;;;;;;;10.30;5.28;;;;;;;;;;10290198;28;20084;-64
2023/10/12 17:04:28;;;;;;;8.73;5.00;;;;;;;;;;10292418;28;20075;-64
2023/10/12 17:09:26;;;;;;;11.63;4.28;;;;;;;;;;10290605;28;20084;-64
2023/10/12 17:14:25;;;;;;;6.72;4.15;;;;;;;;;;10290636;28;20088;-64
2023/10/12 17:19:25;;;;;;;11.18;3.70;;;;;;;;;;10290303;28;20060;-64
2023/10/12 17:24:23;;;;;;;19.48;5.97;;;;;;;;;;10291749;28;20511;-64
2023/10/12 17:29:22;;;;;;;10.38;4.18;;;;;;;;;;10289894;28;20060;-64
2023/10/12 17:34:21;;;;;;;6.00;3.30;;;;;;;;;;10285927;28;20091;-66
2023/10/12 17:39:22;;;;;;;6.72;3.30;;;;;;;;;;10290495;28;20083;-65
2023/10/12 17:44:20;;;;;;;5.43;4.00;;;;;;;;;;10290553;28;20072;-63
2023/10/12 17:49:20;;;;;;;19.85;9.18;;;;;;;;;;10290832;28;20080;-64
2023/10/12 17:54:21;;;;;;;20.17;11.80;;;;;;;;;;10290485;28;20068;-64
2023/10/12 17:59:19;;;;;;;13.10;9.20;;;;;;;;;;10276323;28;20061;-65
2023/10/12 18:04:18;;;;;;;13.00;5.85;;;;;;;;;;10279879;28;20072;-65
2023/10/12 18:09:17;;;;;;;8.93;5.07;;;;;;;;;;10267969;28;20068;-65
2023/10/12 18:14:19;;;;;;;10.10;3.72;;;;;;;;;;10277063;28;20088;-64
2023/10/12 18:19:17;;;;;;;12.57;7.03;;;;;;;;;;10279830;28;20107;-64
2023/10/12 18:24:16;;;;;;;18.23;8.60;;;;;;;;;;10278564;28;20085;-64
2023/10/12 18:29:15;;;;;;;11.95;4.30;;;;;;;;;;10279617;28;20080;-64
2023/10/12 18:34:15;;;;;;;5.55;3.67;;;;;;;;;;10287182;28;20053;-64
2023/10/12 18:39:17;;;;;;;18.15;4.22;;;;;;;;;;10282349;28;20097;-62
2023/10/12 18:44:15;;;;;;;12.00;3.33;;;;;;;;;;10267078;28;20455;-64
2023/10/12 18:49:15;;;;;;;7.88;3.22;;;;;;;;;;10269206;28;20083;-64
2023/10/12 18:54:13;;;;;;;7.68;3.33;;;;;;;;;;10276354;28;20523;-63
2023/10/12 18:59:14;;;;;;;6.65;2.95;;;;;;;;;;10288218;28;20080;-65
2023/10/12 19:04:14;;;;;;;10.68;2.75;;;;;;;;;;10293039;28;20048;-64
2023/10/12 19:09:14;;;;;;;13.23;3.60;;;;;;;;;;10293556;28;20592;-64
2023/10/12 19:14:12;;;;;;;8.88;3.45;;;;;;;;;;10293190;28;20084;-64
2023/10/12 19:19:11;;;;;;;6.35;3.42;;;;;;;;;;10296322;28;20072;-64
2023/10/12 19:24:10;;;;;;;7.20;3.10;;;;;;;;;;10291578;28;20064;-63
2023/10/12 19:29:10;;;;;;;12.38;3.88;;;;;;;;;;10291635;28;20076;-63
2023/10/12 19:34:08;;;;;;;6.32;3.60;;;;;;;;;;10292572;28;20077;-65
2023/10/12 19:39:07;;;;;;;8.77;3.92;;;;;;;;;;10295384;28;20072;-62
2023/10/12 19:44:09;;;;;;;5.75;3.97;;;;;;;;;;10294615;28;20494;-64
2023/10/12 19:49:10;;;;;;;8.73;4.82;;;;;;;;;;10288873;28;20065;-64
2023/10/12 19:54:09;;;;;;;8.52;4.47;;;;;;;;;;10285652;28;20072;-64
2023/10/12 19:59:08;;;;;;;8.40;4.82;;;;;;;;;;10295128;28;20080;-65
2023/10/12 20:04:07;;;;;;;5.75;5.25;;;;;;;;;;10292945;28;20446;-63
2023/10/12 20:09:12;;;;;;;8.25;4.95;;;;;;;;;;10292933;28;20072;-63
2023/10/12 20:14:10;;;;;;;6.13;4.55;;;;;;;;;;10289885;28;20068;-64
2023/10/12 20:19:08;;;;;;;9.93;4.45;;;;;;;;;;10288747;28;20075;-64
2023/10/12 20:24:10;;;;;;;7.50;4.55;;;;;;;;;;10292996;28;20475;-64
2023/10/12 20:29:08;;;;;;;10.65;4.68;;;;;;;;;;10289539;28;20068;-64
2023/10/12 20:34:06;;;;;;;7.35;4.30;;;;;;;;;;10287764;28;20514;-63
2023/10/12 20:39:08;;;;;;;6.97;4.45;;;;;;;;;;10287405;28;20077;-64
2023/10/12 20:44:09;;;;;;;7.10;3.80;;;;;;;;;;10291920;28;20474;-64
2023/10/12 20:49:08;;;;;;;8.65;3.65;;;;;;;;;;10289033;28;20345;-64
2023/10/12 20:54:12;;;;;;;9.23;3.78;;;;;;;;;;10288308;28;20069;-64
2023/10/12 20:59:16;;;;;;;8.48;3.67;;;;;;;;;;10290396;28;20079;-64
2023/10/12 21:04:17;;;;;;;10.07;3.42;;;;;;;;;;10288281;28;20064;-63
2023/10/12 21:09:20;;;;;;;10.13;3.70;;;;;;;;;;10289980;28;20076;-63
2023/10/12 21:14:24;;;;;;;17.02;3.63;;;;;;;;;;10290625;28;20084;-64
2023/10/12 21:19:25;;;;;;;11.45;4.25;;;;;;;;;;10289629;28;20068;-64
2023/10/12 21:24:37;;;;;;;8.57;3.78;;;;;;;;;;10291833;28;20083;-63
2023/10/12 21:29:37;;;;;;;6.15;3.28;;;;;;;;;;10292024;28;20095;-63
2023/10/12 21:34:36;;;;;;;6.95;3.30;;;;;;;;;;10289760;28;20072;-63
2023/10/12 21:39:41;;;;;;;14.00;3.40;;;;;;;;;;10290722;28;20076;-64
2023/10/12 21:44:42;;;;;;;3.38;2.70;;;;;;;;;;10287649;28;20072;-63
2023/10/12 21:49:40;;;;;;;12.63;3.22;;;;;;;;;;10290870;28;20466;-64
2023/10/12 21:54:38;;;;;;;9.65;3.00;;;;;;;;;;10290606;28;20076;-63
2023/10/12 21:59:37;;;;;;;13.40;3.35;;;;;;;;;;10287542;28;20072;-64
2023/10/12 22:04:37;;;;;;;4.57;2.72;;;;;;;;;;10286823;28;20064;-64
2023/10/12 22:09:43;;;;;;;4.53;3.22;;;;;;;;;;10287812;28;20077;-64
2023/10/12 22:15:00;;;;;;;6.15;3.00;;;;;;;;;;10288329;28;20069;-64
2023/10/12 22:20:00;;;;;;;4.57;2.90;;;;;;;;;;10290423;28;20077;-64
2023/10/12 22:24:59;;;;;;;10.70;2.80;;;;;;;;;;10288844;28;20088;-64
2023/10/12 22:29:57;;;;;;;4.28;3.08;;;;;;;;;;10288458;28;20065;-63
2023/10/12 22:34:55;;;;;;;5.72;2.90;;;;;;;;;;10287817;28;20061;-64
2023/10/12 22:39:55;;;;;;;6.85;3.00;;;;;;;;;;10293348;28;20071;-64
2023/10/12 22:44:53;;;;;;;6.43;3.25;;;;;;;;;;10291517;28;20077;-64
2023/10/12 22:49:52;;;;;;;4.38;3.45;;;;;;;;;;10291095;28;20075;-63
2023/10/12 22:54:50;;;;;;;20.20;4.00;;;;;;;;;;10291781;28;20068;-63
2023/10/12 22:59:49;;;;;;;5.63;2.92;;;;;;;;;;10293464;28;20064;-63
2023/10/12 23:04:49;;;;;;;6.18;3.40;;;;;;;;;;10290822;28;20072;-64
2023/10/12 23:09:49;;;;;;;11.85;3.08;;;;;;;;;;10290148;28;20087;-64
2023/10/12 23:14:49;;;;;;;7.00;3.58;;;;;;;;;;10294691;28;20087;-65
2023/10/12 23:19:49;;;;;;;4.45;2.70;;;;;;;;;;10295180;28;20095;-62
2023/10/12 23:24:47;;;;;;;3.50;2.63;;;;;;;;;;10296664;28;20068;-63
2023/10/12 23:29:46;;;;;;;6.38;3.05;;;;;;;;;;10295030;28;20060;-64
2023/10/12 23:34:45;;;;;;;7.57;2.63;;;;;;;;;;10296053;28;20084;-64
2023/10/12 23:39:52;;;;;;;6.53;2.90;;;;;;;;;;10292952;28;20466;-63
2023/10/12 23:44:57;;;;;;;8.07;2.90;;;;;;;;;;10292699;28;20075;-63
2023/10/12 23:55:11;;;;;;;4.22;2.85;;;;;;;;;;10290366;28;19967;-63
